sensor_id;sensor_type;location;lat;lon;timestamp;pressure;altitude;pressure_sealevel;temperature;humidity
13732;BME280;6937;56.096;12.664;2023-04-03T00:02:01;103191.63;;;1.60;100.00
13732;BME280;6937;56.096;12.664;2023-04-03T00:04:27;103187.25;;;1.60;100.00
13732;BME280;6937;56.096;12.664;2023-04-03T00:06:52;103190.75;;;1.59;100.00
13732;BME280;6937;56.096;12.664;2023-04-03T00:09:18;103196.88;;;1.58;100.00
13732;BME280;6937;56.096;12.664;2023-04-03T00:11:43;103200.41;;;1.59;100.00
13732;BME280;6937;56.096;12.664;2023-04-03T00:14:08;103199.53;;;1.54;100.00
13732;BME280;6937;56.096;12.664;2023-04-03T00:16:34;103200.41;;;1.53;100.00
13732;BME280;6937;56.096;12.664;2023-04-03T00:18:59;103212.66;;;1.44;100.00
13732;BME280;6937;56.096;12.664;2023-04-03T00:21:24;103205.63;;;1.43;100.00
13732;BME280;6937;56.096;12.664;2023-04-03T00:23:51;103210.03;;;1.48;100.00
13732;BME280;6937;56.096;12.664;2023-04-03T00:26:16;103210.91;;;1.51;100.00
13732;BME280;6937;56.096;12.664;2023-04-03T00:28:42;103205.66;;;1.53;100.00
13732;BME280;6937;56.096;12.664;2023-04-03T00:31:07;103216.19;;;1.51;100.00
13732;BME280;6937;56.096;12.664;2023-04-03T00:33:32;103209.16;;;1.50;100.00
13732;BME280;6937;56.096;12.664;2023-04-03T00:35:58;103212.66;;;1.48;100.00
13732;BME280;6937;56.096;12.664;2023-04-03T00:38:23;103210.88;;;1.37;100.00
13732;BME280;6937;56.096;12.664;2023-04-03T00:40:49;103208.19;;;1.28;100.00
13732;BME280;6937;56.096;12.664;2023-04-03T00:43:21;103204.66;;;1.22;100.00
13732;BME280;6937;56.096;12.664;2023-04-03T00:45:51;103209.03;;;1.24;100.00
13732;BME280;6937;56.096;12.664;2023-04-03T00:48:20;103206.41;;;1.24;100.00
13732;BME280;6937;56.096;12.664;2023-04-03T00:50:48;103209.88;;;1.17;100.00
13732;BME280;6937;56.096;12.664;2023-04-03T00:53:18;103211.63;;;1.12;100.00
13732;BME280;6937;56.096;12.664;2023-04-03T00:55:46;103208.09;;;1.12;100.00
13732;BME280;6937;56.096;12.664;2023-04-03T00:58:12;103218.66;;;1.15;100.00
13732;BME280;6937;56.096;12.664;2023-04-03T01:00:40;103216.00;;;1.12;100.00
13732;BME280;6937;56.096;12.664;2023-04-03T01:03:08;103217.72;;;1.07;100.00
13732;BME280;6937;56.096;12.664;2023-04-03T01:05:33;103214.19;;;1.06;100.00
13732;BME280;6937;56.096;12.664;2023-04-03T01:07:59;103219.47;;;1.05;100.00
13732;BME280;6937;56.096;12.664;2023-04-03T01:10:25;103224.72;;;1.03;100.00
13732;BME280;6937;56.096;12.664;2023-04-03T01:12:51;103223.81;;;0.98;100.00
13732;BME280;6937;56.096;12.664;2023-04-03T01:15:23;103215.88;;;0.92;100.00
13732;BME280;6937;56.096;12.664;2023-04-03T01:17:54;103214.06;;;0.85;100.00
13732;BME280;6937;56.096;12.664;2023-04-03T01:25:44;103222.69;;;0.66;100.00
13732;BME280;6937;56.096;12.664;2023-04-03T01:28:17;103216.56;;;0.64;100.00
13732;BME280;6937;56.096;12.664;2023-04-03T01:31:00;103225.28;;;0.61;100.00
13732;BME280;6937;56.096;12.664;2023-04-03T01:33:27;103223.53;;;0.60;100.00
13732;BME280;6937;56.096;12.664;2023-04-03T01:35:53;103222.66;;;0.60;100.00
13732;BME280;6937;56.096;12.664;2023-04-03T01:38:18;103222.63;;;0.58;100.00
13732;BME280;6937;56.096;12.664;2023-04-03T01:40:43;103227.94;;;0.60;100.00
13732;BME280;6937;56.096;12.664;2023-04-03T01:43:09;103225.25;;;0.57;100.00
13732;BME280;6937;56.096;12.664;2023-04-03T01:45:35;103231.41;;;0.59;100.00
13732;BME280;6937;56.096;12.664;2023-04-03T01:48:00;103232.28;;;0.56;100.00
13732;BME280;6937;56.096;12.664;2023-04-03T01:50:25;103231.41;;;0.59;100.00
13732;BME280;6937;56.096;12.664;2023-04-03T01:52:51;103222.59;;;0.54;100.00
13732;BME280;6937;56.096;12.664;2023-04-03T01:55:16;103226.13;;;0.56;100.00
13732;BME280;6937;56.096;12.664;2023-04-03T01:57:42;103234.00;;;0.54;100.00
13732;BME280;6937;56.096;12.664;2023-04-03T02:00:07;103219.03;;;0.44;100.00
13732;BME280;6937;56.096;12.664;2023-04-03T02:02:33;103225.13;;;0.41;100.00
13732;BME280;6937;56.096;12.664;2023-04-03T02:04:59;103233.00;;;0.40;100.00
13732;BME280;6937;56.096;12.664;2023-04-03T02:07:24;103226.88;;;0.39;100.00
13732;BME280;6937;56.096;12.664;2023-04-03T02:09:49;103240.00;;;0.36;100.00
13732;BME280;6937;56.096;12.664;2023-04-03T02:12:15;103224.13;;;0.30;100.00
13732;BME280;6937;56.096;12.664;2023-04-03T02:14:40;103242.50;;;0.24;100.00
13732;BME280;6937;56.096;12.664;2023-04-03T02:17:06;103234.50;;;0.15;100.00
13732;BME280;6937;56.096;12.664;2023-04-03T02:19:34;103238.06;;;0.17;100.00
13732;BME280;6937;56.096;12.664;2023-04-03T02:22:00;103242.47;;;0.21;100.00
13732;BME280;6937;56.096;12.664;2023-04-03T02:24:25;103237.13;;;0.15;100.00
13732;BME280;6937;56.096;12.664;2023-04-03T02:26:51;103239.81;;;0.18;100.00
13732;BME280;6937;56.096;12.664;2023-04-03T02:29:16;103244.19;;;0.19;100.00
13732;BME280;6937;56.096;12.664;2023-04-03T02:31:41;103247.72;;;0.20;100.00
13732;BME280;6937;56.096;12.664;2023-04-03T02:34:07;103240.59;;;0.10;100.00
13732;BME280;6937;56.096;12.664;2023-04-03T02:36:32;103247.56;;;0.03;100.00
13732;BME280;6937;56.096;12.664;2023-04-03T02:38:57;103247.50;;;-0.02;100.00
13732;BME280;6937;56.096;12.664;2023-04-03T02:41:23;103243.03;;;-0.07;100.00
13732;BME280;6937;56.096;12.664;2023-04-03T02:43:50;103244.72;;;-0.15;100.00
13732;BME280;6937;56.096;12.664;2023-04-03T02:46:16;103239.41;;;-0.18;100.00
13732;BME280;6937;56.096;12.664;2023-04-03T02:48:41;103243.75;;;-0.23;100.00
13732;BME280;6937;56.096;12.664;2023-04-03T02:51:06;103243.66;;;-0.29;100.00
13732;BME280;6937;56.096;12.664;2023-04-03T02:53:32;103249.78;;;-0.30;100.00
13732;BME280;6937;56.096;12.664;2023-04-03T02:55:57;103246.25;;;-0.32;100.00
13732;BME280;6937;56.096;12.664;2023-04-03T02:58:22;103242.78;;;-0.31;100.00
13732;BME280;6937;56.096;12.664;2023-04-03T03:00:48;103237.50;;;-0.31;100.00
13732;BME280;6937;56.096;12.664;2023-04-03T03:03:13;103245.31;;;-0.39;100.00
13732;BME280;6937;56.096;12.664;2023-04-03T03:05:40;103245.28;;;-0.40;100.00
13732;BME280;6937;56.096;12.664;2023-04-03T03:08:05;103249.59;;;-0.45;100.00
13732;BME280;6937;56.096;12.664;2023-04-03T03:10:30;103243.41;;;-0.51;100.00
13732;BME280;6937;56.096;12.664;2023-04-03T03:12:56;103246.78;;;-0.61;100.00
13732;BME280;6937;56.096;12.664;2023-04-03T03:15:21;103241.41;;;-0.68;100.00
13732;BME280;6937;56.096;12.664;2023-04-03T03:17:46;103256.22;;;-0.73;100.00
13732;BME280;6937;56.096;12.664;2023-04-03T03:20:12;103251.81;;;-0.76;100.00
13732;BME280;6937;56.096;12.664;2023-04-03T03:22:40;103253.56;;;-0.76;100.00
13732;BME280;6937;56.096;12.664;2023-04-03T03:25:06;103252.63;;;-0.80;100.00
13732;BME280;6937;56.096;12.664;2023-04-03T03:27:31;103250.09;;;-0.74;100.00
13732;BME280;6937;56.096;12.664;2023-04-03T03:29:57;103256.19;;;-0.76;100.00
13732;BME280;6937;56.096;12.664;2023-04-03T03:32:22;103256.16;;;-0.78;100.00
13732;BME280;6937;56.096;12.664;2023-04-03T03:34:48;103254.44;;;-0.76;100.00
13732;BME280;6937;56.096;12.664;2023-04-03T03:37:13;103258.88;;;-0.70;100.00
13732;BME280;6937;56.096;12.664;2023-04-03T03:39:38;103251.94;;;-0.67;100.00
13732;BME280;6937;56.096;12.664;2023-04-03T03:42:04;103247.56;;;-0.66;100.00
13732;BME280;6937;56.096;12.664;2023-04-03T03:44:29;103254.59;;;-0.64;100.00
13732;BME280;6937;56.096;12.664;2023-04-03T03:46:55;103254.59;;;-0.65;100.00
13732;BME280;6937;56.096;12.664;2023-04-03T03:49:21;103257.19;;;-0.68;100.00
13732;BME280;6937;56.096;12.664;2023-04-03T03:51:46;103247.44;;;-0.74;100.00
13732;BME280;6937;56.096;12.664;2023-04-03T03:54:12;103257.13;;;-0.70;100.00
13732;BME280;6937;56.096;12.664;2023-04-03T03:56:38;103257.91;;;-0.77;100.00
13732;BME280;6937;56.096;12.664;2023-04-03T03:59:03;103252.66;;;-0.77;100.00
13732;BME280;6937;56.096;12.664;2023-04-03T04:01:29;103264.91;;;-0.79;100.00
13732;BME280;6937;56.096;12.664;2023-04-03T04:03:54;103256.00;;;-0.88;100.00
13732;BME280;6937;56.096;12.664;2023-04-03T04:06:20;103262.97;;;-0.90;100.00
13732;BME280;6937;56.096;12.664;2023-04-03T04:08:46;103259.47;;;-0.91;100.00
13732;BME280;6937;56.096;12.664;2023-04-03T04:11:12;103257.69;;;-0.92;100.00
13732;BME280;6937;56.096;12.664;2023-04-03T04:13:37;103262.94;;;-0.92;100.00
13732;BME280;6937;56.096;12.664;2023-04-03T04:16:02;103275.19;;;-0.94;100.00
13732;BME280;6937;56.096;12.664;2023-04-03T04:18:28;103274.19;;;-1.02;100.00
13732;BME280;6937;56.096;12.664;2023-04-03T04:20:53;103276.75;;;-1.04;100.00
13732;BME280;6937;56.096;12.664;2023-04-03T04:23:19;103282.94;;;-1.02;100.00
13732;BME280;6937;56.096;12.664;2023-04-03T04:25:46;103272.44;;;-1.02;100.00
13732;BME280;6937;56.096;12.664;2023-04-03T04:28:11;103281.16;;;-1.01;100.00
13732;BME280;6937;56.096;12.664;2023-04-03T04:30:37;103289.03;;;-1.01;100.00
13732;BME280;6937;56.096;12.664;2023-04-03T04:33:03;103282.06;;;-1.02;100.00
13732;BME280;6937;56.096;12.664;2023-04-03T04:35:28;103281.13;;;-1.04;100.00
13732;BME280;6937;56.096;12.664;2023-04-03T04:37:54;103285.47;;;-1.06;100.00
13732;BME280;6937;56.096;12.664;2023-04-03T04:40:19;103284.63;;;-1.05;100.00
13732;BME280;6937;56.096;12.664;2023-04-03T04:42:45;103290.69;;;-1.08;100.00
13732;BME280;6937;56.096;12.664;2023-04-03T04:45:10;103296.91;;;-1.01;100.00
13732;BME280;6937;56.096;12.664;2023-04-03T04:47:36;103301.34;;;-0.97;100.00
13732;BME280;6937;56.096;12.664;2023-04-03T04:50:01;103304.91;;;-0.95;100.00
13732;BME280;6937;56.096;12.664;2023-04-03T04:52:27;103306.69;;;-0.94;100.00
13732;BME280;6937;56.096;12.664;2023-04-03T04:54:52;103307.59;;;-0.90;100.00
13732;BME280;6937;56.096;12.664;2023-04-03T04:57:17;103300.53;;;-0.94;100.00
13732;BME280;6937;56.096;12.664;2023-04-03T04:59:43;103309.09;;;-1.06;100.00
13732;BME280;6937;56.096;12.664;2023-04-03T05:02:08;103316.13;;;-1.04;100.00
13732;BME280;6937;56.096;12.664;2023-04-03T05:04:33;103317.06;;;-1.02;100.00
13732;BME280;6937;56.096;12.664;2023-04-03T05:06:59;103311.00;;;-0.98;100.00
13732;BME280;6937;56.096;12.664;2023-04-03T05:09:24;103322.56;;;-0.86;100.00
13732;BME280;6937;56.096;12.664;2023-04-03T05:11:50;103324.41;;;-0.79;100.00
13732;BME280;6937;56.096;12.664;2023-04-03T05:14:16;103324.41;;;-0.78;100.00
13732;BME280;6937;56.096;12.664;2023-04-03T05:16:41;103319.22;;;-0.73;100.00
13732;BME280;6937;56.096;12.664;2023-04-03T05:19:07;103321.00;;;-0.72;100.00
13732;BME280;6937;56.096;12.664;2023-04-03T05:21:32;103320.16;;;-0.70;100.00
13732;BME280;6937;56.096;12.664;2023-04-03T05:23:59;103318.47;;;-0.68;100.00
13732;BME280;6937;56.096;12.664;2023-04-03T05:26:25;103317.63;;;-0.64;100.00
13732;BME280;6937;56.096;12.664;2023-04-03T05:28:51;103315.84;;;-0.66;100.00
13732;BME280;6937;56.096;12.664;2023-04-03T05:31:16;103320.25;;;-0.65;100.00
13732;BME280;6937;56.096;12.664;2023-04-03T05:33:42;103326.47;;;-0.59;100.00
13732;BME280;6937;56.096;12.664;2023-04-03T05:36:07;103322.16;;;-0.52;100.00
13732;BME280;6937;56.096;12.664;2023-04-03T05:38:33;103320.53;;;-0.45;100.00
13732;BME280;6937;56.096;12.664;2023-04-03T05:40:58;103327.59;;;-0.41;100.00
13732;BME280;6937;56.096;12.664;2023-04-03T05:43:24;103327.63;;;-0.38;100.00
13732;BME280;6937;56.096;12.664;2023-04-03T05:45:50;103320.69;;;-0.35;100.00
13732;BME280;6937;56.096;12.664;2023-04-03T05:48:16;103325.06;;;-0.32;100.00
13732;BME280;6937;56.096;12.664;2023-04-03T05:50:41;103324.28;;;-0.25;100.00
13732;BME280;6937;56.096;12.664;2023-04-03T05:53:30;103328.72;;;-0.23;100.00
13732;BME280;6937;56.096;12.664;2023-04-03T05:55:56;103324.38;;;-0.18;100.00
13732;BME280;6937;56.096;12.664;2023-04-03T05:58:21;103335.91;;;-0.08;100.00
13732;BME280;6937;56.096;12.664;2023-04-03T06:00:47;103327.25;;;-0.01;100.00
13732;BME280;6937;56.096;12.664;2023-04-03T06:03:12;103322.91;;;0.04;100.00
13732;BME280;6937;56.096;12.664;2023-04-03T06:05:37;103333.50;;;0.12;100.00
13732;BME280;6937;56.096;12.664;2023-04-03T06:08:03;103327.50;;;0.20;100.00
13732;BME280;6937;56.096;12.664;2023-04-03T06:10:29;103330.16;;;0.23;100.00
13732;BME280;6937;56.096;12.664;2023-04-03T06:12:54;103333.75;;;0.30;100.00
13732;BME280;6937;56.096;12.664;2023-04-03T06:15:20;103329.44;;;0.36;100.00
13732;BME280;6937;56.096;12.664;2023-04-03T06:17:46;103327.75;;;0.43;100.00
13732;BME280;6937;56.096;12.664;2023-04-03T06:20:11;103335.72;;;0.51;100.00
13732;BME280;6937;56.096;12.664;2023-04-03T06:22:37;103333.09;;;0.52;100.00
13732;BME280;6937;56.096;12.664;2023-04-03T06:25:03;103331.41;;;0.60;100.00
13732;BME280;6937;56.096;12.664;2023-04-03T06:27:28;103342.00;;;0.63;100.00
13732;BME280;6937;56.096;12.664;2023-04-03T06:29:54;103335.91;;;0.70;100.00
13732;BME280;6937;56.096;12.664;2023-04-03T06:32:19;103336.81;;;0.74;100.00
13732;BME280;6937;56.096;12.664;2023-04-03T06:34:45;103335.97;;;0.79;100.00
13732;BME280;6937;56.096;12.664;2023-04-03T06:37:22;103328.16;;;0.85;100.00
13732;BME280;6937;56.096;12.664;2023-04-03T06:39:48;103332.59;;;0.89;100.00
13732;BME280;6937;56.096;12.664;2023-04-03T06:42:13;103340.50;;;0.94;100.00
13732;BME280;6937;56.096;12.664;2023-04-03T06:44:39;103332.66;;;0.98;100.00
13732;BME280;6937;56.096;12.664;2023-04-03T06:47:04;103342.34;;;1.03;100.00
13732;BME280;6937;56.096;12.664;2023-04-03T06:49:31;103345.88;;;1.06;100.00
13732;BME280;6937;56.096;12.664;2023-04-03T06:51:57;103333.59;;;1.07;100.00
13732;BME280;6937;56.096;12.664;2023-04-03T06:54:22;103340.69;;;1.12;100.00
13732;BME280;6937;56.096;12.664;2023-04-03T06:56:48;103346.81;;;1.14;100.00
13732;BME280;6937;56.096;12.664;2023-04-03T06:59:14;103345.09;;;1.16;100.00
13732;BME280;6937;56.096;12.664;2023-04-03T07:01:40;103343.38;;;1.20;100.00
13732;BME280;6937;56.096;12.664;2023-04-03T07:04:06;103346.00;;;1.21;100.00
13732;BME280;6937;56.096;12.664;2023-04-03T07:06:31;103340.78;;;1.26;100.00
13732;BME280;6937;56.096;12.664;2023-04-03T07:08:58;103345.19;;;1.31;100.00
13732;BME280;6937;56.096;12.664;2023-04-03T07:11:24;103354.03;;;1.35;100.00
13732;BME280;6937;56.096;12.664;2023-04-03T07:13:50;103343.53;;;1.44;100.00
13732;BME280;6937;56.096;12.664;2023-04-03T07:16:15;103350.59;;;1.54;100.00
13732;BME280;6937;56.096;12.664;2023-04-03T07:18:40;103346.28;;;1.62;100.00
13732;BME280;6937;56.096;12.664;2023-04-03T07:21:06;103346.31;;;1.70;100.00
13732;BME280;6937;56.096;12.664;2023-04-03T07:23:32;103358.69;;;1.78;100.00
13732;BME280;6937;56.096;12.664;2023-04-03T07:25:57;103362.22;;;1.82;100.00
13732;BME280;6937;56.096;12.664;2023-04-03T07:28:22;103355.19;;;1.84;100.00
13732;BME280;6937;56.096;12.664;2023-04-03T07:30:52;103359.59;;;1.85;100.00
13732;BME280;6937;56.096;12.664;2023-04-03T07:33:20;103358.72;;;1.92;100.00
13732;BME280;6937;56.096;12.664;2023-04-03T07:35:46;103359.63;;;1.91;100.00
13732;BME280;6937;56.096;12.664;2023-04-03T07:38:11;103366.66;;;1.92;100.00
13732;BME280;6937;56.096;12.664;2023-04-03T07:40:38;103366.66;;;1.93;100.00
13732;BME280;6937;56.096;12.664;2023-04-03T07:43:04;103364.03;;;1.97;100.00
13732;BME280;6937;56.096;12.664;2023-04-03T07:45:30;103371.06;;;1.99;100.00
13732;BME280;6937;56.096;12.664;2023-04-03T07:47:56;103376.38;;;2.01;100.00
13732;BME280;6937;56.096;12.664;2023-04-03T07:50:22;103381.66;;;2.05;100.00
13732;BME280;6937;56.096;12.664;2023-04-03T07:52:48;103379.91;;;2.10;100.00
13732;BME280;6937;56.096;12.664;2023-04-03T07:55:14;103385.25;;;2.19;100.00
13732;BME280;6937;56.096;12.664;2023-04-03T07:57:39;103384.41;;;2.29;100.00
13732;BME280;6937;56.096;12.664;2023-04-03T08:00:06;103387.94;;;2.37;100.00
13732;BME280;6937;56.096;12.664;2023-04-03T08:02:31;103392.38;;;2.44;100.00
13732;BME280;6937;56.096;12.664;2023-04-03T08:05:00;103400.31;;;2.51;100.00
13732;BME280;6937;56.096;12.664;2023-04-03T08:07:25;103407.38;;;2.56;100.00
13732;BME280;6937;56.096;12.664;2023-04-03T08:09:51;103406.50;;;2.60;100.00
13732;BME280;6937;56.096;12.664;2023-04-03T08:12:17;103410.91;;;2.70;100.00
13732;BME280;6937;56.096;12.664;2023-04-03T08:14:42;103407.44;;;2.76;100.00
13732;BME280;6937;56.096;12.664;2023-04-03T08:17:08;103406.56;;;2.83;100.00
13732;BME280;6937;56.096;12.664;2023-04-03T08:19:39;103413.63;;;2.81;100.00
13732;BME280;6937;56.096;12.664;2023-04-03T08:22:05;103405.69;;;2.79;100.00
13732;BME280;6937;56.096;12.664;2023-04-03T08:24:32;103412.75;;;2.88;100.00
13732;BME280;6937;56.096;12.664;2023-04-03T08:26:57;103418.91;;;2.95;100.00
13732;BME280;6937;56.096;12.664;2023-04-03T08:29:24;103420.69;;;2.96;100.00
13732;BME280;6937;56.096;12.664;2023-04-03T08:31:50;103414.50;;;3.01;100.00
13732;BME280;6937;56.096;12.664;2023-04-03T08:34:16;103417.16;;;3.04;100.00
13732;BME280;6937;56.096;12.664;2023-04-03T08:36:42;103419.81;;;3.12;100.00
13732;BME280;6937;56.096;12.664;2023-04-03T08:39:08;103436.53;;;3.23;100.00
13732;BME280;6937;56.096;12.664;2023-04-03T08:41:41;103435.66;;;3.27;100.00
13732;BME280;6937;56.096;12.664;2023-04-03T08:44:39;103432.13;;;3.26;100.00
13732;BME280;6937;56.096;12.664;2023-04-03T08:47:33;103434.81;;;3.32;100.00
13732;BME280;6937;56.096;12.664;2023-04-03T08:50:06;103441.84;;;3.52;100.00
13732;BME280;6937;56.096;12.664;2023-04-03T08:52:44;103433.03;;;3.59;100.00
13732;BME280;6937;56.096;12.664;2023-04-03T08:55:22;103440.97;;;3.71;100.00
13732;BME280;6937;56.096;12.664;2023-04-03T08:57:51;103437.41;;;3.85;100.00
13732;BME280;6937;56.096;12.664;2023-04-03T09:00:24;103433.88;;;3.93;100.00
13732;BME280;6937;56.096;12.664;2023-04-03T09:02:52;103441.81;;;3.93;100.00
13732;BME280;6937;56.096;12.664;2023-04-03T09:10:49;103434.69;;;4.23;100.00
13732;BME280;6937;56.096;12.664;2023-04-03T09:13:44;103435.50;;;4.36;100.00
13732;BME280;6937;56.096;12.664;2023-04-03T09:16:43;103440.78;;;4.39;100.00
13732;BME280;6937;56.096;12.664;2023-04-03T09:19:22;103441.69;;;4.33;100.00
13732;BME280;6937;56.096;12.664;2023-04-03T09:21:48;103444.25;;;4.50;100.00
13732;BME280;6937;56.096;12.664;2023-04-03T09:24:15;103444.22;;;4.61;100.00
13732;BME280;6937;56.096;12.664;2023-04-03T09:27:08;103450.38;;;4.66;100.00
13732;BME280;6937;56.096;12.664;2023-04-03T09:29:41;103453.94;;;4.65;100.00
13732;BME280;6937;56.096;12.664;2023-04-03T09:32:28;103457.44;;;4.68;100.00
13732;BME280;6937;56.096;12.664;2023-04-03T09:34:57;103468.00;;;4.73;100.00
13732;BME280;6937;56.096;12.664;2023-04-03T09:37:43;103465.31;;;4.83;100.00
13732;BME280;6937;56.096;12.664;2023-04-03T09:40:31;103460.06;;;4.76;100.00
13732;BME280;6937;56.096;12.664;2023-04-03T09:43:04;103468.88;;;4.79;100.00
13732;BME280;6937;56.096;12.664;2023-04-03T09:45:46;103462.59;;;4.94;100.00
13732;BME280;6937;56.096;12.664;2023-04-03T09:50:52;103466.00;;;5.17;100.00
13732;BME280;6937;56.096;12.664;2023-04-03T09:55:54;103465.09;;;5.17;100.00
13732;BME280;6937;56.096;12.664;2023-04-03T09:58:46;103454.38;;;5.29;100.00
13732;BME280;6937;56.096;12.664;2023-04-03T10:01:32;103455.16;;;5.45;100.00
13732;BME280;6937;56.096;12.664;2023-04-03T10:06:40;103446.19;;;5.59;100.00
13732;BME280;6937;56.096;12.664;2023-04-03T10:09:27;103453.13;;;5.75;100.00
13732;BME280;6937;56.096;12.664;2023-04-03T10:12:08;103455.66;;;5.89;100.00
13732;BME280;6937;56.096;12.664;2023-04-03T10:14:58;103462.53;;;6.10;100.00
13732;BME280;6937;56.096;12.664;2023-04-03T10:28:21;103473.53;;;6.53;100.00
13732;BME280;6937;56.096;12.664;2023-04-03T10:30:58;103470.78;;;6.62;99.74
13732;BME280;6937;56.096;12.664;2023-04-03T10:33:46;103476.78;;;6.77;94.69
13732;BME280;6937;56.096;12.664;2023-04-03T10:36:27;103480.72;;;6.46;88.23
13732;BME280;6937;56.096;12.664;2023-04-03T10:45:26;103478.25;;;6.98;93.22
13732;BME280;6937;56.096;12.664;2023-04-03T10:50:31;103482.19;;;7.31;92.95
13732;BME280;6937;56.096;12.664;2023-04-03T10:53:27;103483.19;;;7.25;89.60
13732;BME280;6937;56.096;12.664;2023-04-03T10:58:32;103479.69;;;6.56;83.92
13732;BME280;6937;56.096;12.664;2023-04-03T11:01:04;103469.00;;;6.62;84.55
13732;BME280;6937;56.096;12.664;2023-04-03T11:03:35;103475.94;;;6.74;84.59
13732;BME280;6937;56.096;12.664;2023-04-03T11:06:05;103478.66;;;6.69;84.53
13732;BME280;6937;56.096;12.664;2023-04-03T11:08:38;103479.19;;;6.94;86.83
13732;BME280;6937;56.096;12.664;2023-04-03T11:11:14;103479.53;;;7.33;87.93
13732;BME280;6937;56.096;12.664;2023-04-03T11:14:02;103475.66;;;7.52;89.55
13732;BME280;6937;56.096;12.664;2023-04-03T11:16:30;103480.97;;;7.53;87.32
13732;BME280;6937;56.096;12.664;2023-04-03T11:19:05;103471.25;;;7.51;87.69
13732;BME280;6937;56.096;12.664;2023-04-03T11:21:40;103474.84;;;7.48;87.28
13732;BME280;6937;56.096;12.664;2023-04-03T11:24:17;103477.31;;;7.59;87.86
13732;BME280;6937;56.096;12.664;2023-04-03T11:26:46;103479.72;;;7.74;88.79
13732;BME280;6937;56.096;12.664;2023-04-03T11:29:19;103483.09;;;7.85;89.51
13732;BME280;6937;56.096;12.664;2023-04-03T11:32:06;103482.47;;;8.18;90.29
13732;BME280;6937;56.096;12.664;2023-04-03T11:34:51;103486.41;;;8.47;90.58
13732;BME280;6937;56.096;12.664;2023-04-03T11:37:33;103478.84;;;8.67;91.50
13732;BME280;6937;56.096;12.664;2023-04-03T11:40:04;103475.25;;;8.69;89.85
13732;BME280;6937;56.096;12.664;2023-04-03T11:42:36;103480.25;;;8.42;86.43
13732;BME280;6937;56.096;12.664;2023-04-03T11:47:54;103473.28;;;7.87;83.37
13732;BME280;6937;56.096;12.664;2023-04-03T12:13:40;103492.09;;;8.25;74.12
13732;BME280;6937;56.096;12.664;2023-04-03T12:16:19;103501.34;;;8.54;72.88
13732;BME280;6937;56.096;12.664;2023-04-03T12:21:14;103508.16;;;8.68;68.06
13732;BME280;6937;56.096;12.664;2023-04-03T12:43:33;103561.03;;;8.91;61.33
13732;BME280;6937;56.096;12.664;2023-04-03T12:46:03;103551.72;;;9.10;60.24
13732;BME280;6937;56.096;12.664;2023-04-03T12:48:31;103564.56;;;8.92;57.66
13732;BME280;6937;56.096;12.664;2023-04-03T12:50:58;103565.75;;;8.77;57.76
13732;BME280;6937;56.096;12.664;2023-04-03T12:53:27;103571.81;;;8.39;56.17
13732;BME280;6937;56.096;12.664;2023-04-03T12:55:56;103558.44;;;8.41;57.02
13732;BME280;6937;56.096;12.664;2023-04-03T12:58:26;103563.78;;;8.41;56.58
13732;BME280;6937;56.096;12.664;2023-04-03T13:01:11;103548.69;;;8.41;55.87
13732;BME280;6937;56.096;12.664;2023-04-03T13:03:43;103557.88;;;8.23;54.97
13732;BME280;6937;56.096;12.664;2023-04-03T13:06:28;103554.44;;;8.64;57.66
13732;BME280;6937;56.096;12.664;2023-04-03T13:09:00;103546.16;;;9.58;59.66
13732;BME280;6937;56.096;12.664;2023-04-03T13:11:37;103548.47;;;9.35;56.00
13732;BME280;6937;56.096;12.664;2023-04-03T13:14:15;103554.00;;;9.27;55.00
13732;BME280;6937;56.096;12.664;2023-04-03T13:16:41;103553.56;;;9.45;55.77
13732;BME280;6937;56.096;12.664;2023-04-03T13:19:16;103570.56;;;9.01;52.38
13732;BME280;6937;56.096;12.664;2023-04-03T13:21:41;103570.31;;;8.70;53.57
13732;BME280;6937;56.096;12.664;2023-04-03T13:24:09;103565.03;;;9.50;55.63
13732;BME280;6937;56.096;12.664;2023-04-03T13:26:35;103561.06;;;9.30;52.72
13732;BME280;6937;56.096;12.664;2023-04-03T13:29:20;103564.50;;;9.35;54.29
13732;BME280;6937;56.096;12.664;2023-04-03T13:31:47;103557.63;;;9.25;53.84
13732;BME280;6937;56.096;12.664;2023-04-03T13:34:19;103534.97;;;8.61;57.89
13732;BME280;6937;56.096;12.664;2023-04-03T13:41:52;103457.63;;;7.69;68.78
13732;BME280;6937;56.096;12.664;2023-04-03T13:46:53;103407.50;;;7.45;73.65
13732;BME280;6937;56.096;12.664;2023-04-03T13:49:40;103394.72;;;7.63;77.07
13732;BME280;6937;56.096;12.664;2023-04-03T13:52:28;103386.53;;;7.75;73.94
13732;BME280;6937;56.096;12.664;2023-04-03T13:54:58;103383.56;;;7.91;74.18
13732;BME280;6937;56.096;12.664;2023-04-03T13:57:24;103377.00;;;8.08;76.37
13732;BME280;6937;56.096;12.664;2023-04-03T13:59:50;103370.16;;;7.95;76.09
13732;BME280;6937;56.096;12.664;2023-04-03T14:02:31;103350.16;;;7.74;77.44
13732;BME280;6937;56.096;12.664;2023-04-03T14:04:58;103349.97;;;7.84;76.13
13732;BME280;6937;56.096;12.664;2023-04-03T14:07:27;103349.34;;;7.71;74.18
13732;BME280;6937;56.096;12.664;2023-04-03T14:09:53;103343.06;;;7.73;73.78
13732;BME280;6937;56.096;12.664;2023-04-03T14:12:33;103326.19;;;7.76;72.96
13732;BME280;6937;56.096;12.664;2023-04-03T14:15:01;103332.19;;;7.86;73.21
13732;BME280;6937;56.096;12.664;2023-04-03T14:17:27;103334.13;;;7.77;74.43
13732;BME280;6937;56.096;12.664;2023-04-03T14:19:54;103325.69;;;7.54;75.92
13732;BME280;6937;56.096;12.664;2023-04-03T14:22:23;103327.88;;;7.31;77.95
13732;BME280;6937;56.096;12.664;2023-04-03T14:24:49;103317.50;;;7.19;80.69
13732;BME280;6937;56.096;12.664;2023-04-03T14:27:19;103298.19;;;7.06;83.83
13732;BME280;6937;56.096;12.664;2023-04-03T14:29:46;103301.72;;;7.08;85.70
13732;BME280;6937;56.096;12.664;2023-04-03T14:32:13;103299.47;;;7.35;85.99
13732;BME280;6937;56.096;12.664;2023-04-03T14:34:40;103286.13;;;7.38;85.94
13732;BME280;6937;56.096;12.664;2023-04-03T14:37:10;103282.53;;;7.39;87.84